createdAt,value
2023-01-31T00:01:16.499Z,94127.69
2023-01-31T00:03:43.903Z,94142.22
2023-01-31T00:06:20.941Z,94131.84
2023-01-31T00:08:49.431Z,94136.34
2023-01-31T00:11:17.768Z,94116.38
2023-01-31T00:13:44.804Z,94121.97
2023-01-31T00:16:12.918Z,94091.44
2023-01-31T00:18:40.113Z,94096.56
2023-01-31T00:21:18.743Z,94115.56
2023-01-31T00:23:46.910Z,94115.06
2023-01-31T00:26:18.574Z,94112.97
2023-01-31T00:28:46.379Z,94109.78
2023-01-31T00:31:14.287Z,94113.63
2023-01-31T00:33:43.231Z,94132.31
2023-01-31T00:36:14.849Z,94122.88
2023-01-31T00:38:44.935Z,94143.69
2023-01-31T00:41:12.073Z,94135.38
2023-01-31T00:43:38.836Z,94142.56
2023-01-31T00:46:05.921Z,94148.31
2023-01-31T00:48:33.027Z,94136.50
2023-01-31T00:50:59.882Z,94133.94
2023-01-31T00:53:26.690Z,94148.00
2023-01-31T00:55:55.195Z,94144.97
2023-01-31T00:58:22.349Z,94133.78
2023-01-31T01:00:49.783Z,94125.59
2023-01-31T01:03:16.524Z,94160.16
2023-01-31T01:05:43.282Z,94142.56
2023-01-31T01:08:10.248Z,94142.06
2023-01-31T01:10:37.333Z,94148.63
2023-01-31T01:13:05.862Z,94159.03
2023-01-31T01:15:33.146Z,94164.94
2023-01-31T01:17:59.987Z,94161.28
2023-01-31T01:20:26.658Z,94168.94
2023-01-31T01:22:53.669Z,94163.50
2023-01-31T01:25:20.794Z,94164.47
2023-01-31T01:27:47.634Z,94164.47
2023-01-31T01:30:14.448Z,94152.31
2023-01-31T01:32:41.130Z,94144.97
2023-01-31T01:35:08.418Z,94152.97
2023-01-31T01:37:35.141Z,94167.50
2023-01-31T01:40:01.938Z,94170.22
2023-01-31T01:42:35.013Z,94177.88
2023-01-31T01:45:04.160Z,94164.47
2023-01-31T01:47:47.884Z,94168.63
2023-01-31T01:50:17.713Z,94176.91
2023-01-31T01:53:21.739Z,94178.22
2023-01-31T01:55:55.644Z,94166.69
2023-01-31T01:58:24.332Z,94166.22
2023-01-31T02:00:51.445Z,94160.31
2023-01-31T02:03:18.337Z,94161.09
2023-01-31T02:05:57.086Z,94170.53
2023-01-31T02:08:26.522Z,94182.03
2023-01-31T02:10:53.226Z,94169.91
2023-01-31T02:13:20.228Z,94171.81
2023-01-31T02:15:47.121Z,94173.72
2023-01-31T02:18:14.685Z,94187.31
2023-01-31T02:21:19.198Z,94187.31
2023-01-31T02:24:10.643Z,94206.00
2023-01-31T02:27:14.112Z,94204.25
2023-01-31T02:30:22.147Z,94195.78
2023-01-31T02:32:51.516Z,94188.28
2023-01-31T02:35:46.873Z,94224.09
2023-01-31T02:38:19.416Z,94234.44
2023-01-31T02:40:55.297Z,94241.13
2023-01-31T02:44:02.523Z,94220.06
2023-01-31T02:46:40.211Z,94206.00
2023-01-31T02:49:36.052Z,94237.31
2023-01-31T02:52:17.564Z,94225.78
2023-01-31T02:55:24.387Z,94230.09
2023-01-31T02:57:52.075Z,94239.88
2023-01-31T03:00:19.669Z,94233.50
2023-01-31T03:02:46.611Z,94225.03
2023-01-31T03:05:17.498Z,94231.88
2023-01-31T03:07:48.193Z,94225.66
2023-01-31T03:10:25.437Z,94245.66
2023-01-31T03:13:03.218Z,94240.97
2023-01-31T03:16:05.030Z,94244.34
2023-01-31T03:19:02.199Z,94245.63
2023-01-31T03:21:35.486Z,94243.53
2023-01-31T03:24:02.832Z,94247.84
2023-01-31T03:26:29.563Z,94253.44
2023-01-31T03:28:58.777Z,94272.75
2023-01-31T03:31:39.459Z,94276.47
2023-01-31T03:34:09.365Z,94245.44
2023-01-31T03:36:46.096Z,94265.28
2023-01-31T03:39:34.656Z,94262.22
2023-01-31T03:42:07.646Z,94253.56
2023-01-31T03:44:55.398Z,94269.25
2023-01-31T03:47:33.799Z,94287.94
2023-01-31T03:50:05.815Z,94271.41
2023-01-31T03:52:37.470Z,94285.50
2023-01-31T03:55:15.875Z,94292.59
2023-01-31T03:57:43.847Z,94298.66
2023-01-31T04:00:14.587Z,94298.31
2023-01-31T04:02:43.230Z,94302.13
2023-01-31T04:05:18.870Z,94304.34
2023-01-31T04:07:45.989Z,94294.63
2023-01-31T04:10:21.936Z,94319.38
2023-01-31T04:12:48.758Z,94306.28
2023-01-31T04:15:16.016Z,94313.97
2023-01-31T04:17:42.697Z,94321.31
2023-01-31T04:20:10.855Z,94307.91
2023-01-31T04:22:37.766Z,94329.28
2023-01-31T04:25:05.798Z,94317.34
2023-01-31T04:27:33.220Z,94332.19
2023-01-31T04:30:00.209Z,94329.19
2023-01-31T04:32:26.879Z,94322.63
2023-01-31T04:34:53.600Z,94351.38
2023-01-31T04:37:20.260Z,94363.97
2023-01-31T04:39:46.986Z,94350.09
2023-01-31T04:42:13.667Z,94327.03
2023-01-31T04:44:40.431Z,94336.38
2023-01-31T04:47:07.730Z,94350.75
2023-01-31T04:49:34.538Z,94358.50
2023-01-31T04:52:01.231Z,94359.66
2023-01-31T04:54:27.949Z,94363.84
2023-01-31T04:56:54.638Z,94352.28
2023-01-31T04:59:21.518Z,94373.09
2023-01-31T05:01:48.590Z,94370.16
2023-01-31T05:04:15.388Z,94384.53
2023-01-31T05:06:42.081Z,94364.56
2023-01-31T05:09:09.064Z,94382.53
2023-01-31T05:11:36.321Z,94391.81
2023-01-31T05:14:03.494Z,94376.09
2023-01-31T05:16:30.225Z,94389.41
2023-01-31T05:18:57.023Z,94379.97
2023-01-31T05:21:23.835Z,94392.28
2023-01-31T05:23:50.461Z,94387.41
2023-01-31T05:26:17.262Z,94393.63
2023-01-31T05:28:43.983Z,94399.03
2023-01-31T05:31:11.939Z,94400.09
2023-01-31T05:33:38.721Z,94417.00
2023-01-31T05:36:06.057Z,94417.00
2023-01-31T05:38:32.673Z,94413.91
2023-01-31T05:40:59.307Z,94404.13
2023-01-31T05:43:26.075Z,94411.69
2023-01-31T05:45:52.733Z,94411.00
2023-01-31T05:48:19.530Z,94414.09
2023-01-31T05:50:46.167Z,94408.78
2023-01-31T05:53:12.903Z,94406.91
2023-01-31T05:55:39.515Z,94408.78
2023-01-31T05:58:06.193Z,94436.69
2023-01-31T06:00:33.367Z,94441.81
2023-01-31T06:03:00.371Z,94432.53
2023-01-31T06:05:27.932Z,94427.56
2023-01-31T06:07:55.372Z,94439.06
2023-01-31T06:10:22.351Z,94453.59
2023-01-31T06:12:49.220Z,94440.56
2023-01-31T06:15:16.058Z,94458.88
2023-01-31T06:17:42.821Z,94449.84
2023-01-31T06:20:10.416Z,94454.59
2023-01-31T06:22:37.181Z,94455.88
2023-01-31T06:25:05.226Z,94467.31
2023-01-31T06:27:33.577Z,94460.19
2023-01-31T06:30:00.515Z,94468.63
2023-01-31T06:32:27.269Z,94466.47
2023-01-31T06:34:54.042Z,94474.97
2023-01-31T06:37:20.741Z,94478.13
2023-01-31T06:39:47.450Z,94479.25
2023-01-31T06:42:14.164Z,94476.84
2023-01-31T06:44:40.911Z,94471.06
2023-01-31T06:47:07.626Z,94473.63
2023-01-31T06:49:34.383Z,94468.22
2023-01-31T06:52:01.111Z,94486.50
2023-01-31T06:54:27.790Z,94478.59
2023-01-31T06:56:54.953Z,94491.84
2023-01-31T06:59:21.812Z,94494.41
2023-01-31T07:01:48.564Z,94494.06
2023-01-31T07:04:15.500Z,94493.41
2023-01-31T07:06:42.212Z,94475.81
2023-01-31T07:09:09.099Z,94482.53
2023-01-31T07:11:37.747Z,94481.63
2023-01-31T07:14:05.175Z,94479.88
2023-01-31T07:16:32.359Z,94471.41
2023-01-31T07:18:59.147Z,94483.56
2023-01-31T07:21:26.571Z,94489.66
2023-01-31T07:23:53.288Z,94491.47
2023-01-31T07:26:20.183Z,94489.03
2023-01-31T07:28:47.008Z,94492.47
2023-01-31T07:31:14.947Z,94475.53
2023-01-31T07:33:42.343Z,94480.69
2023-01-31T07:36:13.872Z,94493.28
2023-01-31T07:38:41.150Z,94494.22
2023-01-31T07:41:10.959Z,94500.69
2023-01-31T07:43:37.749Z,94494.28
2023-01-31T07:46:32.249Z,94498.75
2023-01-31T07:48:58.959Z,94499.59
2023-01-31T07:51:25.820Z,94510.94
2023-01-31T07:53:52.642Z,94511.13
2023-01-31T07:56:21.244Z,94510.94
2023-01-31T07:58:49.082Z,94513.84
2023-01-31T08:01:36.796Z,94500.78
2023-01-31T08:04:19.528Z,94510.72
2023-01-31T08:06:48.428Z,94512.09
2023-01-31T08:09:15.161Z,94522.72
2023-01-31T08:11:41.941Z,94522.72
2023-01-31T08:14:09.726Z,94528.28
2023-01-31T08:16:37.033Z,94526.28
2023-01-31T08:19:03.803Z,94531.16
2023-01-31T08:21:30.638Z,94525.63
2023-01-31T08:23:57.547Z,94517.31
2023-01-31T08:26:24.498Z,94533.00
2023-01-31T08:28:54.034Z,94533.50
2023-01-31T08:31:23.530Z,94532.56
2023-01-31T08:33:53.253Z,94524.44
2023-01-31T08:36:26.087Z,94535.53
2023-01-31T08:38:53.784Z,94532.19
2023-01-31T08:41:22.056Z,94531.38
2023-01-31T08:44:00.709Z,94536.34
2023-01-31T08:46:31.558Z,94545.81
2023-01-31T08:48:59.459Z,94557.41
2023-01-31T08:51:26.354Z,94562.50
2023-01-31T08:53:53.439Z,94543.28
2023-01-31T08:56:21.741Z,94567.59
2023-01-31T08:58:48.916Z,94588.28
2023-01-31T09:01:17.954Z,94592.47
2023-01-31T09:03:47.107Z,94603.06
2023-01-31T09:06:21.742Z,94625.38
2023-01-31T09:08:48.561Z,94617.69
2023-01-31T09:11:19.183Z,94605.16
2023-01-31T09:13:47.824Z,94621.19
2023-01-31T09:16:15.116Z,94626.19
2023-01-31T09:18:42.660Z,94620.41
2023-01-31T09:21:13.299Z,94634.22
2023-01-31T09:23:42.587Z,94622.34
2023-01-31T09:26:13.455Z,94622.97
2023-01-31T09:28:43.043Z,94614.31
2023-01-31T09:31:13.547Z,94612.25
2023-01-31T09:33:40.651Z,94607.56
2023-01-31T09:36:12.928Z,94624.91
2023-01-31T09:38:40.487Z,94619.78
2023-01-31T09:41:36.352Z,94620.41
2023-01-31T09:44:04.733Z,94636.28
2023-01-31T09:46:37.294Z,94636.78
2023-01-31T09:49:06.562Z,94637.75
2023-01-31T09:51:35.165Z,94646.25
2023-01-31T09:54:03.760Z,94643.53
2023-01-31T09:56:50.744Z,94638.53
2023-01-31T09:59:23.549Z,94629.41
2023-01-31T10:02:12.387Z,94641.75
2023-01-31T10:05:05.626Z,94654.91
2023-01-31T10:07:43.589Z,94629.06
2023-01-31T10:10:13.949Z,94642.38
2023-01-31T10:12:47.164Z,94630.09
2023-01-31T10:15:37.445Z,94630.25
2023-01-31T10:18:21.850Z,94631.78
2023-01-31T10:20:51.904Z,94610.81
2023-01-31T10:23:40.480Z,94607.06
2023-01-31T10:26:13.876Z,94612.41
2023-01-31T10:29:05.252Z,94595.75
2023-01-31T10:31:36.290Z,94597.59
2023-01-31T10:34:06.079Z,94602.91
2023-01-31T10:36:45.404Z,94607.53
2023-01-31T10:39:18.269Z,94606.41
2023-01-31T10:42:27.778Z,94590.94
2023-01-31T10:44:56.949Z,94594.44
2023-01-31T10:47:35.800Z,94585.38
2023-01-31T10:50:13.561Z,94586.06
2023-01-31T10:52:50.453Z,94584.72
2023-01-31T10:55:29.520Z,94596.25
2023-01-31T10:57:57.211Z,94570.66
2023-01-31T11:00:30.989Z,94580.31
2023-01-31T11:02:58.500Z,94591.06
2023-01-31T11:05:27.991Z,94586.28
2023-01-31T11:07:57.784Z,94603.59
2023-01-31T11:10:29.744Z,94580.25
2023-01-31T11:13:02.135Z,94572.06
2023-01-31T11:15:30.028Z,94581.47
2023-01-31T11:18:00.799Z,94587.19
2023-01-31T11:20:33.170Z,94579.25
2023-01-31T11:23:01.825Z,94578.31
2023-01-31T11:25:30.878Z,94566.91
2023-01-31T11:28:00.418Z,94593.06
2023-01-31T11:30:36.724Z,94571.41
2023-01-31T11:33:03.460Z,94560.00
2023-01-31T11:35:32.521Z,94580.50
2023-01-31T11:38:00.440Z,94561.59
2023-01-31T11:40:30.563Z,94565.59
2023-01-31T11:42:59.689Z,94564.97
2023-01-31T11:45:34.342Z,94556.63
2023-01-31T11:48:18.231Z,94560.47
2023-01-31T11:50:50.979Z,94562.69
2023-01-31T11:53:20.711Z,94551.31
2023-01-31T11:55:49.494Z,94554.75
2023-01-31T11:58:17.994Z,94547.31
2023-01-31T12:00:59.200Z,94540.38
2023-01-31T12:03:26.520Z,94541.25
2023-01-31T12:06:01.047Z,94542.66
2023-01-31T12:08:42.799Z,94554.38
2023-01-31T12:11:09.760Z,94569.25
2023-01-31T12:13:52.073Z,94537.44
2023-01-31T12:16:21.281Z,94541.00
2023-01-31T12:19:01.086Z,94528.31
2023-01-31T12:21:27.815Z,94546.94
2023-01-31T12:24:16.689Z,94543.47
2023-01-31T12:26:53.195Z,94556.06
2023-01-31T12:29:25.770Z,94555.41
2023-01-31T12:32:05.132Z,94540.63
2023-01-31T12:34:59.019Z,94533.78
2023-01-31T12:37:55.213Z,94533.03
2023-01-31T12:40:26.184Z,94526.66
2023-01-31T12:43:22.740Z,94535.28
2023-01-31T12:46:17.308Z,94536.38
2023-01-31T12:48:51.376Z,94531.66
2023-01-31T12:51:33.290Z,94543.47
2023-01-31T12:54:03.060Z,94532.53
2023-01-31T12:56:47.662Z,94527.56
2023-01-31T12:59:17.306Z,94524.63
2023-01-31T13:01:52.687Z,94525.38
2023-01-31T13:04:28.652Z,94521.28
2023-01-31T13:07:01.284Z,94514.13
2023-01-31T13:09:31.913Z,94510.31
2023-01-31T13:12:08.316Z,94503.81
2023-01-31T13:14:42.117Z,94504.84
2023-01-31T13:17:12.909Z,94508.53
2023-01-31T13:20:05.775Z,94510.69
2023-01-31T13:22:37.263Z,94500.50
2023-01-31T13:25:17.003Z,94506.34
2023-01-31T13:27:47.459Z,94503.31
2023-01-31T13:30:23.891Z,94499.22
2023-01-31T13:32:52.652Z,94499.09
2023-01-31T13:35:25.910Z,94486.69
2023-01-31T13:37:56.626Z,94496.72
2023-01-31T13:40:26.499Z,94499.22
2023-01-31T13:42:54.484Z,94485.09
2023-01-31T13:45:46.117Z,94485.75
2023-01-31T13:48:27.580Z,94481.00
2023-01-31T13:50:59.775Z,94498.50
2023-01-31T13:53:40.379Z,94480.75
2023-01-31T13:56:10.260Z,94486.31
2023-01-31T13:58:37.133Z,94478.91
2023-01-31T14:01:13.460Z,94492.56
2023-01-31T14:04:21.771Z,94486.13
2023-01-31T14:06:54.387Z,94481.56
2023-01-31T14:09:32.390Z,94468.63
2023-01-31T14:12:20.511Z,94471.84
2023-01-31T14:14:51.678Z,94472.16
2023-01-31T14:17:21.504Z,94472.97
2023-01-31T14:19:49.355Z,94471.97
2023-01-31T14:22:20.120Z,94473.53
2023-01-31T14:24:46.874Z,94463.25
2023-01-31T14:27:30.854Z,94468.25
2023-01-31T14:30:08.786Z,94453.03
2023-01-31T14:32:39.863Z,94462.94
2023-01-31T14:35:12.510Z,94452.09
2023-01-31T14:38:00.571Z,94471.34
2023-01-31T14:40:30.459Z,94457.38
2023-01-31T14:43:15.358Z,94453.72
2023-01-31T14:45:54.015Z,94456.53
2023-01-31T14:48:29.217Z,94460.94
2023-01-31T14:51:43.418Z,94439.59
2023-01-31T14:54:31.685Z,94456.56
2023-01-31T14:57:10.621Z,94466.38
2023-01-31T14:59:45.191Z,94451.47
2023-01-31T15:02:36.787Z,94465.69
2023-01-31T15:05:13.649Z,94466.53
2023-01-31T15:08:13.995Z,94456.59
2023-01-31T15:11:14.251Z,94459.16
2023-01-31T15:13:49.869Z,94461.16
2023-01-31T15:16:25.048Z,94441.53
2023-01-31T15:19:08.357Z,94432.50
2023-01-31T15:21:40.326Z,94434.16
2023-01-31T15:24:17.123Z,94439.97
2023-01-31T15:26:44.316Z,94431.59
2023-01-31T15:29:19.692Z,94426.88
2023-01-31T15:31:48.997Z,94423.94
2023-01-31T15:34:27.790Z,94425.41
2023-01-31T15:37:07.178Z,94434.38
2023-01-31T15:39:57.444Z,94455.84
2023-01-31T15:42:27.009Z,94448.53
2023-01-31T15:45:30.721Z,94447.78
2023-01-31T15:48:06.689Z,94449.22
2023-01-31T15:50:35.213Z,94446.84
2023-01-31T15:53:12.778Z,94448.78
2023-01-31T15:55:40.794Z,94441.88
2023-01-31T15:58:08.553Z,94442.84
2023-01-31T16:00:37.059Z,94451.50
2023-01-31T16:03:08.124Z,94452.22
2023-01-31T16:05:37.221Z,94459.81
2023-01-31T16:08:34.311Z,94456.69
2023-01-31T16:11:04.936Z,94448.72
2023-01-31T16:13:34.373Z,94444.75
2023-01-31T16:16:01.510Z,94439.50
2023-01-31T16:18:29.837Z,94440.88
2023-01-31T16:20:58.022Z,94444.88
2023-01-31T16:23:31.986Z,94432.72
2023-01-31T16:26:21.901Z,94438.81
2023-01-31T16:28:54.977Z,94446.00
2023-01-31T16:31:23.209Z,94452.72
2023-01-31T16:33:50.974Z,94446.56
2023-01-31T16:36:23.473Z,94450.69
2023-01-31T16:39:05.470Z,94443.59
2023-01-31T16:41:51.847Z,94438.38
2023-01-31T16:44:20.233Z,94446.16
2023-01-31T16:46:48.543Z,94454.53
2023-01-31T16:49:25.933Z,94450.94
2023-01-31T16:52:02.111Z,94449.41
2023-01-31T16:54:33.579Z,94478.81
2023-01-31T16:57:03.170Z,94477.22
2023-01-31T16:59:39.290Z,94490.72
2023-01-31T17:02:19.631Z,94465.03
2023-01-31T17:04:48.101Z,94467.88
2023-01-31T17:07:20.108Z,94475.66
2023-01-31T17:09:47.650Z,94475.44
2023-01-31T17:12:20.675Z,94470.88
2023-01-31T17:14:47.653Z,94480.56
2023-01-31T17:17:20.535Z,94484.41
2023-01-31T17:19:48.636Z,94487.41
2023-01-31T17:22:15.749Z,94479.97
2023-01-31T17:24:42.515Z,94490.38
2023-01-31T17:27:14.820Z,94501.78
2023-01-31T17:29:42.322Z,94487.50
2023-01-31T17:32:12.557Z,94488.84
2023-01-31T17:34:39.981Z,94498.53
2023-01-31T17:37:07.316Z,94463.97
2023-01-31T17:39:35.081Z,94499.41
2023-01-31T17:42:01.793Z,94493.16
2023-01-31T17:44:28.622Z,94510.47
2023-01-31T17:46:55.324Z,94522.00
2023-01-31T17:49:22.273Z,94528.06
2023-01-31T17:51:49.091Z,94521.22
2023-01-31T17:54:15.867Z,94522.88
2023-01-31T17:56:42.588Z,94507.19
2023-01-31T17:59:18.294Z,94514.75
2023-01-31T18:01:52.328Z,94508.50
2023-01-31T18:04:19.053Z,94495.22
2023-01-31T18:06:45.800Z,94518.31
2023-01-31T18:09:15.741Z,94516.22
2023-01-31T18:11:43.913Z,94524.25
2023-01-31T18:14:12.022Z,94527.44
2023-01-31T18:16:38.969Z,94532.06
2023-01-31T18:19:05.844Z,94514.25
2023-01-31T18:21:34.297Z,94528.41
2023-01-31T18:24:01.755Z,94535.78
2023-01-31T18:26:28.875Z,94539.47
2023-01-31T18:28:57.633Z,94539.28
2023-01-31T18:31:24.610Z,94530.00
2023-01-31T18:33:51.392Z,94532.41
2023-01-31T18:36:19.977Z,94542.19
2023-01-31T18:38:48.632Z,94549.22
2023-01-31T18:41:19.009Z,94534.28
2023-01-31T18:43:46.948Z,94536.06
2023-01-31T18:46:14.271Z,94550.03
2023-01-31T18:48:42.046Z,94541.50
2023-01-31T18:51:11.149Z,94538.63
2023-01-31T18:53:40.465Z,94542.72
2023-01-31T18:56:10.548Z,94532.16
2023-01-31T18:58:39.504Z,94523.88
2023-01-31T19:01:12.040Z,94521.78
2023-01-31T19:03:39.540Z,94499.50
2023-01-31T19:06:14.833Z,94515.72
2023-01-31T19:08:51.577Z,94507.56
2023-01-31T19:11:25.867Z,94504.34
2023-01-31T19:13:59.968Z,94496.28
2023-01-31T19:16:31.986Z,94486.28
2023-01-31T19:19:00.190Z,94478.66
2023-01-31T19:21:32.109Z,94475.41
2023-01-31T19:24:02.523Z,94498.84
2023-01-31T19:26:36.368Z,94495.16
2023-01-31T19:29:05.035Z,94491.41
2023-01-31T19:31:35.498Z,94497.19
2023-01-31T19:34:04.652Z,94508.34
2023-01-31T19:36:38.748Z,94506.03
2023-01-31T19:39:11.367Z,94519.84
2023-01-31T19:41:38.986Z,94495.28
2023-01-31T19:44:06.599Z,94499.00
2023-01-31T19:46:37.148Z,94503.06
2023-01-31T19:49:05.686Z,94484.94
2023-01-31T19:51:35.691Z,94496.16
2023-01-31T19:54:08.135Z,94493.38
2023-01-31T19:56:36.044Z,94485.81
2023-01-31T19:59:04.281Z,94495.28
2023-01-31T20:01:33.807Z,94481.34
2023-01-31T20:04:02.183Z,94490.78
2023-01-31T20:06:30.303Z,94499.88
2023-01-31T20:09:01.441Z,94477.13
2023-01-31T20:11:31.520Z,94481.09
2023-01-31T20:14:04.080Z,94492.56
2023-01-31T20:16:31.033Z,94496.75
2023-01-31T20:18:58.980Z,94497.06
2023-01-31T20:21:26.949Z,94500.81
2023-01-31T20:23:55.048Z,94489.16
2023-01-31T20:26:25.252Z,94499.44
2023-01-31T20:28:52.707Z,94495.78
2023-01-31T21:09:45.945Z,94506.50
2023-01-31T21:12:12.578Z,94511.69
2023-01-31T21:14:39.247Z,94514.44
2023-01-31T21:17:05.998Z,94504.34
2023-01-31T21:19:32.565Z,94509.16
2023-01-31T21:21:59.275Z,94495.19
2023-01-31T21:24:25.899Z,94502.59
2023-01-31T21:26:52.657Z,94502.13
2023-01-31T21:29:19.516Z,94509.16
2023-01-31T21:31:46.425Z,94501.16
2023-01-31T21:34:13.119Z,94505.66
2023-01-31T21:36:39.705Z,94502.59
2023-01-31T21:39:06.428Z,94512.03
2023-01-31T21:41:51.350Z,94513.34
2023-01-31T21:44:18.051Z,94503.41
2023-01-31T21:46:46.639Z,94513.50
2023-01-31T21:49:13.326Z,94505.16
2023-01-31T21:51:39.955Z,94510.44
2023-01-31T21:54:06.799Z,94497.16
2023-01-31T21:56:33.436Z,94484.66
2023-01-31T21:59:00.129Z,94505.50
2023-01-31T22:01:34.546Z,94501.16
2023-01-31T22:04:01.628Z,94483.53
2023-01-31T22:06:39.150Z,94484.50
2023-01-31T22:09:10.714Z,94484.81
2023-01-31T22:11:38.237Z,94488.66
2023-01-31T22:14:10.441Z,94477.63
2023-01-31T22:16:37.579Z,94487.53
2023-01-31T22:19:04.773Z,94491.38
2023-01-31T22:21:34.746Z,94477.59
2023-01-31T22:24:03.059Z,94462.53
2023-01-31T22:26:31.809Z,94463.50
2023-01-31T22:29:00.701Z,94464.78
2023-01-31T22:31:27.898Z,94468.78
2023-01-31T22:33:56.101Z,94472.66
2023-01-31T22:36:24.808Z,94465.25
2023-01-31T22:38:51.588Z,94469.09
2023-01-31T22:41:20.035Z,94464.13
2023-01-31T22:43:48.942Z,94457.59
2023-01-31T22:46:22.268Z,94463.16
2023-01-31T22:48:49.637Z,94451.78
2023-01-31T22:51:19.837Z,94470.41
2023-01-31T22:53:47.147Z,94467.50
2023-01-31T22:56:18.829Z,94443.00
2023-01-31T22:58:49.048Z,94435.03
2023-01-31T23:01:18.694Z,94440.59
2023-01-31T23:03:45.848Z,94437.09
2023-01-31T23:06:13.218Z,94434.22
2023-01-31T23:08:40.333Z,94446.53
2023-01-31T23:11:12.385Z,94424.59
2023-01-31T23:13:39.321Z,94437.22
2023-01-31T23:16:07.503Z,94426.38
2023-01-31T23:18:34.322Z,94421.38
2023-01-31T23:21:08.864Z,94409.72
2023-01-31T23:23:35.609Z,94417.22
2023-01-31T23:26:03.219Z,94412.25
2023-01-31T23:28:30.061Z,94417.72
2023-01-31T23:30:56.836Z,94412.56
2023-01-31T23:33:23.546Z,94417.88
2023-01-31T23:35:50.857Z,94409.06
2023-01-31T23:38:17.583Z,94402.81
2023-01-31T23:40:44.402Z,94397.84
2023-01-31T23:43:10.975Z,94397.38
2023-01-31T23:45:37.623Z,94403.13
2023-01-31T23:48:04.474Z,94397.06
2023-01-31T23:50:31.055Z,94393.22
2023-01-31T23:52:57.661Z,94394.47
2023-01-31T23:55:24.316Z,94387.44
2023-01-31T23:57:51.017Z,94393.69
